Ramsey, MN

7:43 PM CDT on July 04, 2015 (GMT -0500)
Central Park - Trott Brook | | Change Station
CLOSE
Current Station
Personal Weather Station
Location: Ramsey, MN
Elevation: 882 ft
Nearby Weather Stations

Elev 882 ft 45.27 °N, 93.45 °W | Updated 28 seconds ago

Partly Cloudy
Partly Cloudy
81.5 °F
Feels Like 84 °F
N
2.8
Wind Variable Wind from SW
Gusts 3.7 mph

Today
High -- | Low -- °F
--% Chance of Precip.
Yesterday
High -- | Low -- °F
Precip. -- in
5:31 AM 9:04 PM
Waning Gibbous, 89% visible
Pressure 29.88 in
Visibility 7.0 miles
Clouds Mostly Cloudy 5000 ft
Heat Index 84 °F
Dew Point 67 °F
Humidity 62%
Rainfall 0.00 in
Snow Depth Not available.
UV 1 out of 12
Pollen 4.20 out of 12
Air Quality Not available.
Flu Activity Not available.
METAR KANE 042345Z 20007KT 7SM BKN050 29/18 A2988

More Conditions Fewer Conditions

Pressure 29.88 in
Visibility 7.0 miles
Clouds Mostly Cloudy 5000 ft
Heat Index 84 °F
Dew Point 67 °F
Humidity 62%
Rainfall 0.00 in
Snow Depth Not available.
UV 1 out of 12
Pollen 4.20 out of 12
Air Quality Not available.
Flu Activity Not available.
METAR KANE 042345Z 20007KT 7SM BKN050 29/18 A2988

More Conditions Fewer Conditions

10-Day Weather Forecast

×

Almanac

Astronomy

Jul. 04, 2015 Rise Set
Actual Time
Civil Twilight
Nautical Twilight
Astronomical Twilight
Moon
Length of Visible Light
Length of Day
Tomorrow will be .
, % of the Moon is Illuminated

Today's Extremes

State Highs State Lows

Community

WunderPhotos

Upload Photos

1,835,125 photos uploaded!

WunderBlogs® & News

Nearby

Air Quality

  Air Quality AQ Index Pollutant
Not available.

Snow Depth

Station Depth Elevation

Earthquake Activity

City Distance Mag. Time & Date
Minimum magnitude displayed is 2.5.

Coastal Water Temperatures

Place Temperature

Stations

Nearby Weather Stations

Station Location Temp. Windchill Dew Point Humidity Wind Precip. Elev Updated Type